createdAt,value
2022-10-29T00:01:23.407Z,9.75
2022-10-29T00:03:52.655Z,14.25
2022-10-29T00:06:21.950Z,9.25
2022-10-29T00:08:51.226Z,10.75
2022-10-29T00:11:22.076Z,11.00
2022-10-29T00:13:55.167Z,12.50
2022-10-29T00:16:25.805Z,9.00
2022-10-29T00:18:55.844Z,10.00
2022-10-29T00:21:27.010Z,11.00
2022-10-29T00:23:56.798Z,12.50
2022-10-29T00:26:26.691Z,14.00
2022-10-29T00:28:57.300Z,14.00
2022-10-29T00:31:27.287Z,18.00
2022-10-29T00:33:57.256Z,17.50
2022-10-29T00:36:28.080Z,16.25
2022-10-29T00:38:58.325Z,20.25
2022-10-29T00:41:31.472Z,22.00
2022-10-29T00:44:18.990Z,21.50
2022-10-29T00:46:49.953Z,23.25
2022-10-29T00:49:20.170Z,23.75
2022-10-29T00:51:49.933Z,26.00
2022-10-29T00:54:19.336Z,26.50
2022-10-29T00:56:51.393Z,27.75
2022-10-29T00:59:20.834Z,21.50
2022-10-29T01:01:50.515Z,19.50
2022-10-29T01:04:20.425Z,21.50
2022-10-29T01:06:50.445Z,22.75
2022-10-29T01:09:19.759Z,21.00
2022-10-29T01:11:48.984Z,25.00
2022-10-29T01:14:22.094Z,27.75
2022-10-29T01:16:51.331Z,32.25
2022-10-29T01:19:23.720Z,33.75
2022-10-29T01:21:55.802Z,38.25
2022-10-29T01:24:38.722Z,36.75
2022-10-29T01:27:34.211Z,26.00
2022-10-29T01:30:33.234Z,32.50
2022-10-29T01:33:05.503Z,27.50
2022-10-29T01:35:39.254Z,28.75
2022-10-29T01:38:35.895Z,28.25
2022-10-29T01:41:20.858Z,25.25
2022-10-29T01:43:56.983Z,27.75
2022-10-29T01:46:32.872Z,28.50
2022-10-29T01:49:05.829Z,25.25
2022-10-29T01:51:37.455Z,28.00
2022-10-29T01:54:11.918Z,25.25
2022-10-29T01:56:41.986Z,25.25
2022-10-29T01:59:23.019Z,28.25
2022-10-29T02:02:25.383Z,26.50
2022-10-29T02:05:05.907Z,24.25
2022-10-29T02:07:35.730Z,24.50
2022-10-29T02:10:20.198Z,24.50
2022-10-29T02:12:54.416Z,23.75
2022-10-29T02:15:43.792Z,24.75
2022-10-29T02:18:13.440Z,25.00
2022-10-29T02:20:47.657Z,24.50
2022-10-29T02:23:18.118Z,24.00
2022-10-29T02:25:47.528Z,24.25
2022-10-29T02:28:16.878Z,24.25
2022-10-29T02:30:46.141Z,22.25
2022-10-29T02:33:15.379Z,21.50
2022-10-29T02:35:44.693Z,26.25
2022-10-29T02:38:13.927Z,20.25
2022-10-29T02:40:43.148Z,20.00
2022-10-29T02:43:13.520Z,21.00
2022-10-29T02:45:42.807Z,18.00
2022-10-29T02:48:12.023Z,19.00
2022-10-29T02:50:41.299Z,21.25
2022-10-29T02:53:10.529Z,20.00
2022-10-29T02:55:39.824Z,18.50
2022-10-29T02:58:09.102Z,21.25
2022-10-29T03:00:39.395Z,20.00
2022-10-29T03:03:08.642Z,20.25
2022-10-29T03:05:39.344Z,19.00
2022-10-29T03:08:08.715Z,18.50
2022-10-29T03:10:37.995Z,20.50
2022-10-29T03:13:07.571Z,19.25
2022-10-29T03:15:36.896Z,20.25
2022-10-29T03:18:06.757Z,18.00
2022-10-29T03:20:36.612Z,20.50
2022-10-29T03:23:05.916Z,17.75
2022-10-29T03:25:35.178Z,19.75
2022-10-29T03:28:07.335Z,20.50
2022-10-29T03:30:36.769Z,19.25
2022-10-29T03:33:06.021Z,17.50
2022-10-29T03:35:35.317Z,18.50
2022-10-29T03:38:04.927Z,19.50
2022-10-29T03:40:34.264Z,16.00
2022-10-29T03:43:03.537Z,16.00
2022-10-29T03:45:32.813Z,15.75
2022-10-29T03:48:02.121Z,13.50
2022-10-29T03:50:31.417Z,15.00
2022-10-29T03:53:00.797Z,16.50
2022-10-29T03:55:32.689Z,17.50
2022-10-29T03:58:02.524Z,14.00
2022-10-29T04:00:31.766Z,16.50
2022-10-29T04:03:01.524Z,18.50
2022-10-29T04:05:30.890Z,15.50
2022-10-29T04:08:00.195Z,16.25
2022-10-29T04:10:29.533Z,14.50
2022-10-29T04:12:59.048Z,20.00
2022-10-29T04:15:28.443Z,13.25
2022-10-29T04:17:58.098Z,16.00
2022-10-29T04:20:43.436Z,14.75
2022-10-29T04:27:01.713Z,15.25
2022-10-29T04:28:36.886Z,17.50
2022-10-29T04:28:55.733Z,18.00
2022-10-29T04:31:25.005Z,15.75
2022-10-29T04:33:57.365Z,14.50
2022-10-29T04:36:26.575Z,15.25
2022-10-29T04:38:55.921Z,17.50
2022-10-29T04:41:25.298Z,14.00
2022-10-29T04:43:55.480Z,13.00
2022-10-29T04:46:24.750Z,16.75
2022-10-29T04:48:54.098Z,14.50
2022-10-29T04:51:24.727Z,15.00
2022-10-29T04:53:54.308Z,14.00
2022-10-29T04:56:23.612Z,14.25
2022-10-29T04:58:53.893Z,13.75
2022-10-29T05:01:23.295Z,13.75
2022-10-29T05:03:55.607Z,15.00
2022-10-29T05:06:28.231Z,16.50
2022-10-29T05:08:57.530Z,12.75
2022-10-29T05:11:26.957Z,14.50
2022-10-29T05:13:56.370Z,17.25
2022-10-29T05:16:25.621Z,16.75
2022-10-29T05:18:54.841Z,22.75
2022-10-29T05:21:24.147Z,19.25
2022-10-29T05:23:53.621Z,17.50
2022-10-29T05:26:22.980Z,16.75
2022-10-29T05:28:52.815Z,18.75
2022-10-29T05:31:22.058Z,19.25
2022-10-29T05:33:53.955Z,20.25
2022-10-29T05:36:25.314Z,20.00
2022-10-29T05:38:54.584Z,18.00
2022-10-29T05:41:23.845Z,21.25
2022-10-29T05:43:53.404Z,18.25
2022-10-29T05:46:22.633Z,17.00
2022-10-29T05:48:51.963Z,16.25
2022-10-29T05:51:21.262Z,21.50
2022-10-29T05:53:50.576Z,16.50
2022-10-29T05:56:19.863Z,21.00
2022-10-29T05:58:52.395Z,19.25
2022-10-29T06:01:21.952Z,21.25
2022-10-29T06:03:54.212Z,20.00
2022-10-29T06:06:23.804Z,19.75
2022-10-29T06:08:53.192Z,17.50
2022-10-29T06:11:22.495Z,18.25
2022-10-29T06:13:51.815Z,17.00
2022-10-29T06:16:21.820Z,17.75
2022-10-29T06:18:51.338Z,21.25
2022-10-29T06:21:20.794Z,15.50
2022-10-29T06:23:51.982Z,22.75
2022-10-29T06:26:21.806Z,19.75
2022-10-29T06:28:51.209Z,20.00
2022-10-29T06:31:20.645Z,19.00
2022-10-29T06:33:49.970Z,18.50
2022-10-29T06:36:19.484Z,18.50
2022-10-29T06:38:48.769Z,16.25
2022-10-29T06:41:18.491Z,16.50
2022-10-29T06:43:47.911Z,20.75
2022-10-29T06:46:17.256Z,21.50
2022-10-29T06:48:46.902Z,20.00
2022-10-29T06:51:16.214Z,20.50
2022-10-29T06:53:45.471Z,16.50
2022-10-29T06:56:14.851Z,20.00
2022-10-29T06:58:45.231Z,17.25
2022-10-29T07:01:14.666Z,18.00
2022-10-29T07:03:44.102Z,22.75
2022-10-29T07:06:13.450Z,16.00
2022-10-29T07:08:43.278Z,20.00
2022-10-29T07:11:12.790Z,15.50
2022-10-29T07:13:42.388Z,18.00
2022-10-29T07:16:12.629Z,16.50
2022-10-29T07:18:41.875Z,17.25
2022-10-29T07:21:11.200Z,18.25
2022-10-29T07:23:40.516Z,17.50
2022-10-29T07:26:09.835Z,17.25
2022-10-29T07:28:39.221Z,20.50
2022-10-29T07:31:09.298Z,17.75
2022-10-29T07:33:38.585Z,18.00
2022-10-29T07:36:07.995Z,14.75
2022-10-29T07:38:37.227Z,16.00
2022-10-29T07:41:06.622Z,15.25
2022-10-29T07:43:35.958Z,15.25
2022-10-29T07:46:05.464Z,17.25
2022-10-29T07:48:35.177Z,16.00
2022-10-29T07:51:04.617Z,16.75
2022-10-29T07:53:34.143Z,19.50
2022-10-29T07:56:03.497Z,21.75
2022-10-29T07:58:32.708Z,21.25
2022-10-29T08:01:02.169Z,16.25
2022-10-29T08:03:31.478Z,16.00
2022-10-29T08:06:00.859Z,18.75
2022-10-29T08:08:30.232Z,17.25
2022-10-29T08:11:03.166Z,18.25
2022-10-29T08:13:32.995Z,14.50
2022-10-29T08:16:02.304Z,16.50
2022-10-29T08:18:31.658Z,18.25
2022-10-29T08:21:00.878Z,19.25
2022-10-29T08:23:30.294Z,17.75
2022-10-29T08:26:00.260Z,16.50
2022-10-29T08:28:31.791Z,22.75
2022-10-29T08:31:04.650Z,16.50
2022-10-29T08:33:33.985Z,20.50
2022-10-29T08:36:03.651Z,32.75
2022-10-29T08:38:32.935Z,42.50
2022-10-29T08:41:02.169Z,36.50
2022-10-29T08:43:31.441Z,31.50
2022-10-29T08:46:00.896Z,33.25
2022-10-29T08:48:36.182Z,32.00
2022-10-29T08:51:25.979Z,31.25
2022-10-29T08:54:29.956Z,32.00
2022-10-29T08:56:52.032Z,33.50
2022-10-29T08:59:26.269Z,29.00
2022-10-29T09:01:55.841Z,29.75
2022-10-29T09:04:25.684Z,30.00
2022-10-29T09:07:09.762Z,28.50
2022-10-29T09:09:48.951Z,29.00
2022-10-29T09:12:18.347Z,30.00
2022-10-29T09:15:02.295Z,32.25
2022-10-29T09:17:31.825Z,28.25
2022-10-29T09:20:19.255Z,28.75
2022-10-29T09:22:57.427Z,28.50
2022-10-29T09:25:30.231Z,30.00
2022-10-29T09:28:02.818Z,27.00
2022-10-29T09:30:33.332Z,22.25
2022-10-29T09:33:03.826Z,25.25
2022-10-29T09:35:39.247Z,29.25
2022-10-29T09:38:14.533Z,26.25
2022-10-29T09:40:44.931Z,27.75
2022-10-29T09:43:21.465Z,28.50
2022-10-29T09:46:10.909Z,21.50
2022-10-29T09:48:47.522Z,28.75
2022-10-29T09:51:17.266Z,22.25
2022-10-29T09:53:46.680Z,23.50
2022-10-29T09:56:16.037Z,23.75
2022-10-29T09:58:46.862Z,25.25
2022-10-29T10:01:16.251Z,23.75
2022-10-29T10:03:47.408Z,31.75
2022-10-29T10:06:17.734Z,28.25
2022-10-29T10:09:13.137Z,29.50
2022-10-29T10:11:44.191Z,24.75
2022-10-29T10:14:19.720Z,24.25
2022-10-29T10:16:58.786Z,24.75
2022-10-29T10:19:29.554Z,29.25
2022-10-29T10:22:02.991Z,31.00
2022-10-29T10:24:36.909Z,26.75
2022-10-29T10:27:22.139Z,23.00
2022-10-29T10:30:07.083Z,26.50
2022-10-29T10:32:37.072Z,25.25
2022-10-29T10:35:23.834Z,24.50
2022-10-29T10:37:53.350Z,24.50
2022-10-29T10:40:27.749Z,25.50
2022-10-29T10:42:57.449Z,32.25
2022-10-29T10:45:29.198Z,29.00
2022-10-29T10:48:00.018Z,31.25
2022-10-29T10:50:30.840Z,27.25
2022-10-29T10:53:02.987Z,29.25
2022-10-29T10:55:32.542Z,28.75
2022-10-29T10:58:17.515Z,25.25
2022-10-29T11:00:53.371Z,26.25
2022-10-29T11:03:42.805Z,24.00
2022-10-29T11:06:15.529Z,24.50
2022-10-29T11:08:57.154Z,27.25
2022-10-29T11:11:34.958Z,24.25
2022-10-29T11:14:12.494Z,22.75
2022-10-29T11:16:45.662Z,29.50
2022-10-29T11:19:21.086Z,22.25
2022-10-29T11:21:59.641Z,25.50
2022-10-29T11:24:35.266Z,24.00
2022-10-29T11:27:10.734Z,23.75
2022-10-29T11:29:40.162Z,21.25
2022-10-29T11:32:09.381Z,26.25
2022-10-29T11:34:50.671Z,24.75
2022-10-29T11:37:24.964Z,20.00
2022-10-29T11:39:57.276Z,22.50
2022-10-29T11:42:26.922Z,23.75
2022-10-29T11:44:56.373Z,20.50
2022-10-29T11:47:34.659Z,23.50
2022-10-29T11:50:22.249Z,25.00
2022-10-29T11:52:54.962Z,27.75
2022-10-29T11:55:24.423Z,29.75
2022-10-29T11:57:56.455Z,25.75
2022-10-29T12:00:26.303Z,23.75
2022-10-29T12:02:55.796Z,27.50
2022-10-29T12:05:25.378Z,24.00
2022-10-29T12:08:05.290Z,27.75
2022-10-29T12:10:46.324Z,26.50
2022-10-29T12:13:37.003Z,23.50
2022-10-29T12:16:15.152Z,28.25
2022-10-29T12:18:52.387Z,32.25
2022-10-29T12:21:57.139Z,26.00
2022-10-29T12:24:32.746Z,31.25
2022-10-29T12:27:11.585Z,28.25
2022-10-29T12:29:45.349Z,27.00
2022-10-29T12:32:30.243Z,24.00
2022-10-29T12:35:04.951Z,26.00
2022-10-29T12:37:34.824Z,27.75
2022-10-29T12:40:24.346Z,26.25
2022-10-29T12:42:54.954Z,25.50
2022-10-29T12:45:39.929Z,25.25
2022-10-29T12:48:23.118Z,30.00
2022-10-29T12:51:07.931Z,27.25
2022-10-29T12:53:37.709Z,25.75
2022-10-29T12:56:08.940Z,20.75
2022-10-29T12:58:44.839Z,24.00
2022-10-29T13:02:05.468Z,22.25
2022-10-29T13:04:30.001Z,24.75
2022-10-29T13:07:18.207Z,26.50
2022-10-29T13:09:48.565Z,25.75
2022-10-29T13:12:38.015Z,24.50
2022-10-29T13:15:16.778Z,23.25
2022-10-29T13:17:50.260Z,22.25
2022-10-29T13:20:26.769Z,23.25
2022-10-29T13:22:56.758Z,23.25
2022-10-29T13:25:36.417Z,23.00
2022-10-29T13:28:12.058Z,24.75
2022-10-29T13:30:43.468Z,23.25
2022-10-29T13:33:29.072Z,24.00
2022-10-29T13:36:16.977Z,25.00
2022-10-29T13:39:04.465Z,27.75
2022-10-29T13:41:43.881Z,24.50
2022-10-29T13:44:15.849Z,24.50
2022-10-29T13:47:03.464Z,21.00
2022-10-29T13:49:36.606Z,25.50
2022-10-29T13:52:12.685Z,22.25
2022-10-29T13:54:45.549Z,22.25
2022-10-29T13:57:16.631Z,19.50
2022-10-29T13:59:49.908Z,25.00
2022-10-29T14:02:34.402Z,23.75
2022-10-29T14:05:24.507Z,24.50
2022-10-29T14:08:00.378Z,25.25
2022-10-29T14:10:36.288Z,21.50
2022-10-29T14:13:23.522Z,19.50
2022-10-29T14:16:10.182Z,20.00
2022-10-29T14:18:44.215Z,23.75
2022-10-29T14:21:23.883Z,17.50
2022-10-29T14:23:57.998Z,23.25
2022-10-29T14:26:28.690Z,20.75
2022-10-29T14:28:58.370Z,25.50
2022-10-29T14:31:29.483Z,22.00
2022-10-29T14:34:03.360Z,21.50
2022-10-29T14:36:36.343Z,19.75
2022-10-29T14:39:06.289Z,21.25
2022-10-29T14:41:39.900Z,23.00
2022-10-29T14:44:31.276Z,22.25
2022-10-29T14:47:14.673Z,20.75
2022-10-29T14:49:49.766Z,22.00
2022-10-29T14:52:28.335Z,21.00
2022-10-29T14:55:00.689Z,22.25
2022-10-29T14:57:32.913Z,21.50
2022-10-29T15:00:07.926Z,23.75
2022-10-29T15:02:40.000Z,17.00
2022-10-29T15:05:39.627Z,20.00
2022-10-29T15:08:20.618Z,20.00
2022-10-29T15:10:55.382Z,19.25
2022-10-29T15:13:32.899Z,22.75
2022-10-29T15:16:02.799Z,19.00
2022-10-29T15:18:35.410Z,17.25
2022-10-29T15:21:06.417Z,20.25
2022-10-29T15:23:38.461Z,19.75
2022-10-29T15:26:13.277Z,20.75
2022-10-29T15:28:45.228Z,19.00
2022-10-29T15:31:21.043Z,19.75
2022-10-29T15:33:55.774Z,18.25
2022-10-29T15:36:25.761Z,21.25
2022-10-29T15:39:18.684Z,21.75
2022-10-29T15:41:52.473Z,21.50
2022-10-29T15:44:29.138Z,18.75
2022-10-29T15:47:00.770Z,22.00
2022-10-29T15:49:32.859Z,21.25
2022-10-29T15:52:03.262Z,20.75
2022-10-29T15:54:32.756Z,19.00
2022-10-29T15:57:02.688Z,18.25
2022-10-29T15:59:32.383Z,21.75
2022-10-29T16:02:02.332Z,22.75
2022-10-29T16:04:32.083Z,17.50
2022-10-29T16:07:02.023Z,18.00
2022-10-29T16:09:31.512Z,16.50
2022-10-29T16:12:01.119Z,15.75
2022-10-29T16:14:30.806Z,18.75
2022-10-29T16:17:00.496Z,19.50
2022-10-29T16:19:30.370Z,17.25
2022-10-29T16:22:00.866Z,19.25
2022-10-29T16:24:30.793Z,16.75
2022-10-29T16:27:00.242Z,21.50
2022-10-29T16:29:29.762Z,19.25
2022-10-29T16:31:59.549Z,19.75
2022-10-29T16:34:29.041Z,16.50
2022-10-29T16:36:58.372Z,19.25
2022-10-29T16:39:27.644Z,22.00
2022-10-29T16:41:56.895Z,19.50
2022-10-29T16:44:26.186Z,15.50
2022-10-29T16:46:55.563Z,17.00
2022-10-29T16:49:24.880Z,21.00
2022-10-29T16:51:54.190Z,20.75
2022-10-29T16:54:23.535Z,20.75
2022-10-29T16:56:56.110Z,18.00
2022-10-29T16:59:25.682Z,18.50
2022-10-29T17:01:55.084Z,19.00
2022-10-29T17:04:24.488Z,18.25
2022-10-29T17:06:53.920Z,22.25
2022-10-29T17:09:25.578Z,22.00
2022-10-29T17:11:54.956Z,23.00
2022-10-29T17:14:24.154Z,19.50
2022-10-29T17:16:53.412Z,17.00
2022-10-29T17:19:22.852Z,21.00
2022-10-29T17:21:52.235Z,17.00
2022-10-29T17:24:21.681Z,18.00
2022-10-29T17:26:50.926Z,17.00
2022-10-29T17:29:20.225Z,17.25
2022-10-29T17:31:49.762Z,20.00
2022-10-29T17:34:19.067Z,16.00
2022-10-29T17:36:48.368Z,19.25
2022-10-29T17:39:17.675Z,20.00
2022-10-29T17:41:46.964Z,17.00
2022-10-29T17:44:17.203Z,17.75
2022-10-29T17:46:46.493Z,19.00
2022-10-29T17:49:15.728Z,17.00
2022-10-29T17:51:44.977Z,17.50
2022-10-29T17:54:15.064Z,19.75
2022-10-29T17:56:44.354Z,19.00
2022-10-29T17:59:13.618Z,17.50
2022-10-29T18:01:42.973Z,18.00
2022-10-29T18:04:12.661Z,19.75
2022-10-29T18:06:41.977Z,18.50
2022-10-29T18:09:11.280Z,15.50
2022-10-29T18:11:40.567Z,19.00
2022-10-29T18:14:09.822Z,21.75
2022-10-29T18:16:39.099Z,19.00
2022-10-29T18:19:09.028Z,19.00
2022-10-29T18:21:38.276Z,18.75
2022-10-29T18:24:07.751Z,21.00
2022-10-29T18:26:38.111Z,16.00
2022-10-29T18:29:09.644Z,16.50
2022-10-29T18:31:41.297Z,22.00
2022-10-29T18:34:11.078Z,18.50
2022-10-29T18:36:42.412Z,17.50
2022-10-29T18:39:11.963Z,18.75
2022-10-29T18:41:41.726Z,21.25
2022-10-29T18:44:10.979Z,19.00
2022-10-29T18:46:40.213Z,14.75
2022-10-29T18:49:11.388Z,22.00
2022-10-29T18:51:40.851Z,15.75
2022-10-29T18:54:11.481Z,15.50
2022-10-29T18:56:40.822Z,17.25
2022-10-29T18:59:11.742Z,17.25
2022-10-29T19:01:41.531Z,18.50
2022-10-29T19:04:13.449Z,16.50
2022-10-29T19:06:42.829Z,18.00
2022-10-29T19:09:12.574Z,18.50
2022-10-29T19:11:42.470Z,19.75
2022-10-29T19:14:14.410Z,16.00
2022-10-29T19:16:43.673Z,19.50
2022-10-29T19:19:17.088Z,14.50
2022-10-29T19:21:49.122Z,15.50
2022-10-29T19:24:18.524Z,20.25
2022-10-29T19:26:47.803Z,19.00
2022-10-29T19:29:17.346Z,14.25
2022-10-29T19:31:47.593Z,14.75
2022-10-29T19:34:16.854Z,18.00
2022-10-29T19:36:46.115Z,15.00
2022-10-29T19:39:15.372Z,13.75
2022-10-29T19:41:44.591Z,14.25
2022-10-29T19:44:13.839Z,16.00
2022-10-29T19:46:44.423Z,13.25
2022-10-29T19:49:13.671Z,15.50
2022-10-29T19:51:42.862Z,15.75
2022-10-29T19:54:12.125Z,15.00
2022-10-29T19:56:41.373Z,16.50
2022-10-29T19:59:10.681Z,14.00
2022-10-29T20:01:41.638Z,17.75
2022-10-29T20:04:11.427Z,17.50
2022-10-29T20:06:40.706Z,17.25
2022-10-29T20:09:09.892Z,20.50
2022-10-29T20:11:39.169Z,16.00
2022-10-29T20:14:09.694Z,14.00
2022-10-29T20:16:38.947Z,18.25
2022-10-29T20:19:08.445Z,16.50
2022-10-29T20:21:37.669Z,15.25
2022-10-29T20:24:06.948Z,18.25
2022-10-29T20:26:36.259Z,15.25
2022-10-29T20:29:05.515Z,16.75
2022-10-29T20:31:40.003Z,19.25
2022-10-29T20:34:12.409Z,17.00
2022-10-29T20:36:42.122Z,19.50
2022-10-29T20:39:13.163Z,16.75
2022-10-29T20:41:43.397Z,24.75
2022-10-29T20:44:12.617Z,18.25
2022-10-29T20:46:43.507Z,15.25
2022-10-29T20:49:13.339Z,18.00
2022-10-29T20:51:42.633Z,18.75
2022-10-29T20:54:11.873Z,18.25
2022-10-29T20:56:41.214Z,16.50
2022-10-29T20:59:10.551Z,16.00
2022-10-29T21:01:39.890Z,14.50
2022-10-29T21:04:09.123Z,18.75
2022-10-29T21:06:38.325Z,19.75
2022-10-29T21:09:08.444Z,16.00
2022-10-29T21:11:37.709Z,16.50
2022-10-29T21:14:07.373Z,18.00
2022-10-29T21:16:36.640Z,19.00
2022-10-29T21:19:07.026Z,15.25
2022-10-29T21:21:36.563Z,18.75
2022-10-29T21:24:05.860Z,15.75
2022-10-29T21:26:35.103Z,15.00
2022-10-29T21:29:04.382Z,17.75
2022-10-29T21:31:33.724Z,13.00
2022-10-29T21:34:03.039Z,18.75
2022-10-29T21:36:32.273Z,16.75
2022-10-29T21:39:01.598Z,18.50
2022-10-29T21:41:30.957Z,17.25
2022-10-29T21:44:00.220Z,19.50
2022-10-29T21:46:29.534Z,13.00
2022-10-29T21:48:58.829Z,13.50
2022-10-29T21:51:28.113Z,18.25
2022-10-29T21:53:57.505Z,15.25
2022-10-29T21:56:26.874Z,15.75
2022-10-29T21:58:56.182Z,18.00
2022-10-29T22:01:25.509Z,15.75
2022-10-29T22:03:54.864Z,19.00
2022-10-29T22:06:26.947Z,20.50
2022-10-29T22:09:00.888Z,16.75
2022-10-29T22:11:30.543Z,14.25
2022-10-29T22:13:59.810Z,15.50
2022-10-29T22:16:29.049Z,14.00
2022-10-29T22:18:58.305Z,17.25
2022-10-29T22:21:28.299Z,16.00
2022-10-29T22:23:58.233Z,14.25
2022-10-29T22:26:28.688Z,14.75
2022-10-29T22:28:58.276Z,17.75
2022-10-29T22:31:27.588Z,20.00
2022-10-29T22:33:56.908Z,15.00
2022-10-29T22:36:27.321Z,19.25
2022-10-29T22:38:57.197Z,15.50
2022-10-29T22:41:30.114Z,13.75
2022-10-29T22:44:02.657Z,15.75
2022-10-29T22:46:32.382Z,14.00
2022-10-29T22:49:03.732Z,11.50
2022-10-29T22:51:36.105Z,14.50
2022-10-29T22:54:05.625Z,17.25
2022-10-29T22:56:36.573Z,14.75
2022-10-29T22:59:07.248Z,15.25
2022-10-29T23:01:42.044Z,19.00
2022-10-29T23:04:14.549Z,15.75
2022-10-29T23:06:43.832Z,17.50
2022-10-29T23:09:13.066Z,16.75
2022-10-29T23:11:42.311Z,13.25
2022-10-29T23:14:11.552Z,15.25
2022-10-29T23:16:40.759Z,13.75
2022-10-29T23:19:10.081Z,16.00
2022-10-29T23:21:39.366Z,17.75
2022-10-29T23:24:08.768Z,18.75
2022-10-29T23:26:38.009Z,17.00
2022-10-29T23:29:07.322Z,15.25
2022-10-29T23:31:36.597Z,14.75
2022-10-29T23:34:07.761Z,24.75
2022-10-29T23:36:37.201Z,24.00
2022-10-29T23:39:06.473Z,23.50
2022-10-29T23:41:35.763Z,24.50
2022-10-29T23:44:05.091Z,19.75
2022-10-29T23:46:34.465Z,22.50
2022-10-29T23:49:03.858Z,22.00
2022-10-29T23:54:07.154Z,17.00
2022-10-29T23:56:36.470Z,17.75
2022-10-29T23:59:05.753Z,18.50
